sensor_id;sensor_type;location;lat;lon;timestamp;pressure;altitude;pressure_sealevel;temperature;humidity
68634;BME280;55625;47.072;22.192;2023-04-05T00:01:43;99657.88;;;-0.22;100.00
68634;BME280;55625;47.072;22.192;2023-04-05T00:04:15;99656.25;;;-0.23;100.00
68634;BME280;55625;47.072;22.192;2023-04-05T00:06:47;99662.31;;;-0.14;100.00
68634;BME280;55625;47.072;22.192;2023-04-05T00:09:18;99656.78;;;-0.10;100.00
68634;BME280;55625;47.072;22.192;2023-04-05T00:11:45;99658.72;;;-0.14;100.00
68634;BME280;55625;47.072;22.192;2023-04-05T00:14:11;99657.97;;;-0.11;100.00
68634;BME280;55625;47.072;22.192;2023-04-05T00:16:37;99665.28;;;0.01;100.00
68634;BME280;55625;47.072;22.192;2023-04-05T00:19:03;99653.56;;;-0.12;100.00
68634;BME280;55625;47.072;22.192;2023-04-05T00:21:29;99659.13;;;-0.16;100.00
68634;BME280;55625;47.072;22.192;2023-04-05T00:23:56;99663.56;;;-0.08;100.00
68634;BME280;55625;47.072;22.192;2023-04-05T00:26:24;99655.97;;;-0.11;100.00
68634;BME280;55625;47.072;22.192;2023-04-05T00:28:50;99661.53;;;-0.14;100.00
68634;BME280;55625;47.072;22.192;2023-04-05T00:31:17;99642.84;;;-0.10;100.00
68634;BME280;55625;47.072;22.192;2023-04-05T00:33:44;99649.97;;;-0.13;100.00
68634;BME280;55625;47.072;22.192;2023-04-05T00:36:16;99649.88;;;-0.23;100.00
68634;BME280;55625;47.072;22.192;2023-04-05T00:38:44;99649.88;;;-0.23;100.00
68634;BME280;55625;47.072;22.192;2023-04-05T00:41:11;99652.63;;;-0.27;100.00
68634;BME280;55625;47.072;22.192;2023-04-05T00:43:37;99645.91;;;-0.22;100.00
68634;BME280;55625;47.072;22.192;2023-04-05T00:46:05;99645.09;;;-0.23;100.00
68634;BME280;55625;47.072;22.192;2023-04-05T00:48:32;99644.28;;;-0.27;100.00
68634;BME280;55625;47.072;22.192;2023-04-05T00:50:58;99639.03;;;-0.32;100.00
68634;BME280;55625;47.072;22.192;2023-04-05T00:53:25;99632.72;;;-0.29;100.00
68634;BME280;55625;47.072;22.192;2023-04-05T00:55:54;99643.75;;;-0.36;100.00
68634;BME280;55625;47.072;22.192;2023-04-05T00:58:21;99638.97;;;-0.36;100.00
68634;BME280;55625;47.072;22.192;2023-04-05T01:03:22;99643.84;;;-0.29;100.00
68634;BME280;55625;47.072;22.192;2023-04-05T01:08:59;99634.59;;;-0.37;100.00
68634;BME280;55625;47.072;22.192;2023-04-05T01:11:30;99636.97;;;-0.39;100.00
68634;BME280;55625;47.072;22.192;2023-04-05T01:14:01;99631.81;;;-0.37;100.00
68634;BME280;55625;47.072;22.192;2023-04-05T01:16:27;99641.34;;;-0.38;100.00
68634;BME280;55625;47.072;22.192;2023-04-05T01:18:54;99645.75;;;-0.37;100.00
68634;BME280;55625;47.072;22.192;2023-04-05T01:24:15;99632.53;;;-0.43;100.00
68634;BME280;55625;47.072;22.192;2023-04-05T01:30:08;99626.94;;;-0.47;100.00
68634;BME280;55625;47.072;22.192;2023-04-05T01:33:19;99629.78;;;-0.40;100.00
68634;BME280;55625;47.072;22.192;2023-04-05T01:35:54;99626.59;;;-0.42;100.00
68634;BME280;55625;47.072;22.192;2023-04-05T01:38:25;99626.94;;;-0.47;100.00
68634;BME280;55625;47.072;22.192;2023-04-05T01:40:52;99626.13;;;-0.47;100.00
68634;BME280;55625;47.072;22.192;2023-04-05T01:43:18;99637.69;;;-0.45;100.00
68634;BME280;55625;47.072;22.192;2023-04-05T01:45:45;99631.66;;;-0.51;100.00
68634;BME280;55625;47.072;22.192;2023-04-05T01:48:13;99628.94;;;-0.44;100.00
68634;BME280;55625;47.072;22.192;2023-04-05T01:50:39;99626.91;;;-0.50;100.00
68634;BME280;55625;47.072;22.192;2023-04-05T01:53:07;99627.72;;;-0.46;100.00
68634;BME280;55625;47.072;22.192;2023-04-05T01:55:33;99626.97;;;-0.43;100.00
68634;BME280;55625;47.072;22.192;2023-04-05T01:57:59;99631.31;;;-0.46;100.00
68634;BME280;55625;47.072;22.192;2023-04-05T02:00:24;99633.69;;;-0.48;100.00
68634;BME280;55625;47.072;22.192;2023-04-05T02:02:52;99634.50;;;-0.47;100.00
68634;BME280;55625;47.072;22.192;2023-04-05T02:05:18;99638.13;;;-0.43;100.00
68634;BME280;55625;47.072;22.192;2023-04-05T02:07:44;99626.94;;;-0.47;100.00
68634;BME280;55625;47.072;22.192;2023-04-05T02:10:10;99643.28;;;-0.45;100.00
68634;BME280;55625;47.072;22.192;2023-04-05T02:12:36;99642.47;;;-0.46;100.00
68634;BME280;55625;47.072;22.192;2023-04-05T02:15:02;99638.09;;;-0.47;100.00
68634;BME280;55625;47.072;22.192;2023-04-05T02:17:28;99639.69;;;-0.46;100.00
68634;BME280;55625;47.072;22.192;2023-04-05T02:19:59;99639.31;;;-0.44;100.00
68634;BME280;55625;47.072;22.192;2023-04-05T02:22:27;99649.72;;;-0.38;100.00
68634;BME280;55625;47.072;22.192;2023-04-05T02:24:54;99638.97;;;-0.36;100.00
68634;BME280;55625;47.072;22.192;2023-04-05T02:27:20;99648.91;;;-0.38;100.00
68634;BME280;55625;47.072;22.192;2023-04-05T02:29:46;99640.09;;;-0.44;100.00
68634;BME280;55625;47.072;22.192;2023-04-05T02:32:11;99638.03;;;-0.50;100.00
68634;BME280;55625;47.072;22.192;2023-04-05T02:34:38;99638.88;;;-0.46;100.00
68634;BME280;55625;47.072;22.192;2023-04-05T02:37:06;99646.88;;;-0.45;100.00
68634;BME280;55625;47.072;22.192;2023-04-05T02:39:32;99646.44;;;-0.47;100.00
68634;BME280;55625;47.072;22.192;2023-04-05T02:41:58;99647.63;;;-0.48;100.00
68634;BME280;55625;47.072;22.192;2023-04-05T02:44:24;99647.25;;;-0.46;100.00
68634;BME280;55625;47.072;22.192;2023-04-05T02:46:50;99647.69;;;-0.41;100.00
68634;BME280;55625;47.072;22.192;2023-04-05T02:49:16;99644.09;;;-0.41;100.00
68634;BME280;55625;47.072;22.192;2023-04-05T02:51:42;99642.53;;;-0.39;100.00
68634;BME280;55625;47.072;22.192;2023-04-05T02:54:08;99639.69;;;-0.46;100.00
68634;BME280;55625;47.072;22.192;2023-04-05T02:56:33;99641.28;;;-0.45;100.00
68634;BME280;55625;47.072;22.192;2023-04-05T02:58:59;99635.38;;;-0.40;100.00
68634;BME280;55625;47.072;22.192;2023-04-05T03:01:26;99639.34;;;-0.41;100.00
68634;BME280;55625;47.072;22.192;2023-04-05T03:03:52;99639.69;;;-0.46;100.00
68634;BME280;55625;47.072;22.192;2023-04-05T03:06:18;99644.91;;;-0.41;100.00
68634;BME280;55625;47.072;22.192;2023-04-05T03:08:45;99648.44;;;-0.47;100.00
68634;BME280;55625;47.072;22.192;2023-04-05T03:11:14;99635.31;;;-0.43;100.00
68634;BME280;55625;47.072;22.192;2023-04-05T03:13:40;99644.88;;;-0.44;100.00
68634;BME280;55625;47.072;22.192;2023-04-05T03:16:06;99642.47;;;-0.46;100.00
68634;BME280;55625;47.072;22.192;2023-04-05T03:18:32;99646.09;;;-0.42;100.00
68634;BME280;55625;47.072;22.192;2023-04-05T03:20:58;99645.69;;;-0.44;100.00
68634;BME280;55625;47.072;22.192;2023-04-05T03:23:28;99647.66;;;-0.44;100.00
68634;BME280;55625;47.072;22.192;2023-04-05T03:26:02;99644.88;;;-0.44;100.00
68634;BME280;55625;47.072;22.192;2023-04-05T03:28:29;99640.56;;;-0.38;100.00
68634;BME280;55625;47.072;22.192;2023-04-05T03:30:57;99638.56;;;-0.38;100.00
68634;BME280;55625;47.072;22.192;2023-04-05T03:33:23;99644.94;;;-0.37;100.00
68634;BME280;55625;47.072;22.192;2023-04-05T03:35:49;99640.91;;;-0.43;100.00
68634;BME280;55625;47.072;22.192;2023-04-05T03:38:15;99648.88;;;-0.42;100.00
68634;BME280;55625;47.072;22.192;2023-04-05T03:40:42;99645.28;;;-0.42;100.00
68634;BME280;55625;47.072;22.192;2023-04-05T03:43:08;99646.16;;;-0.35;100.00
68634;BME280;55625;47.072;22.192;2023-04-05T03:45:33;99654.94;;;-0.33;100.00
68634;BME280;55625;47.072;22.192;2023-04-05T03:48:00;99651.31;;;-0.37;100.00
68634;BME280;55625;47.072;22.192;2023-04-05T03:50:26;99657.72;;;-0.33;100.00
68634;BME280;55625;47.072;22.192;2023-04-05T03:52:52;99648.19;;;-0.32;100.00
68634;BME280;55625;47.072;22.192;2023-04-05T03:55:18;99647.44;;;-0.28;100.00
68634;BME280;55625;47.072;22.192;2023-04-05T03:57:44;99654.63;;;-0.27;100.00
68634;BME280;55625;47.072;22.192;2023-04-05T04:00:11;99651.47;;;-0.26;100.00
68634;BME280;55625;47.072;22.192;2023-04-05T04:02:43;99653.03;;;-0.28;100.00
68634;BME280;55625;47.072;22.192;2023-04-05T04:05:10;99647.03;;;-0.30;100.00
68634;BME280;55625;47.072;22.192;2023-04-05T04:07:37;99641.50;;;-0.27;100.00
68634;BME280;55625;47.072;22.192;2023-04-05T04:10:06;99646.25;;;-0.27;100.00
68634;BME280;55625;47.072;22.192;2023-04-05T04:12:32;99652.63;;;-0.27;100.00
68634;BME280;55625;47.072;22.192;2023-04-05T04:14:59;99647.09;;;-0.23;100.00
68634;BME280;55625;47.072;22.192;2023-04-05T04:17:35;99649.91;;;-0.20;100.00
68634;BME280;55625;47.072;22.192;2023-04-05T04:20:03;99657.06;;;-0.22;100.00
68634;BME280;55625;47.072;22.192;2023-04-05T04:22:39;99652.69;;;-0.23;100.00
68634;BME280;55625;47.072;22.192;2023-04-05T04:25:07;99656.69;;;-0.21;100.00
68634;BME280;55625;47.072;22.192;2023-04-05T04:27:42;99654.69;;;-0.20;100.00
68634;BME280;55625;47.072;22.192;2023-04-05T04:30:13;99657.13;;;-0.15;100.00
68634;BME280;55625;47.072;22.192;2023-04-05T04:32:41;99663.53;;;-0.11;100.00
68634;BME280;55625;47.072;22.192;2023-04-05T04:38:09;99669.16;;;-0.08;100.00
68634;BME280;55625;47.072;22.192;2023-04-05T04:40:43;99672.38;;;-0.02;100.00
68634;BME280;55625;47.072;22.192;2023-04-05T04:43:14;99675.56;;;-0.04;100.00
68634;BME280;55625;47.072;22.192;2023-04-05T04:45:45;99669.22;;;-0.01;100.00
68634;BME280;55625;47.072;22.192;2023-04-05T04:48:16;99658.50;;;0.02;100.00
68634;BME280;55625;47.072;22.192;2023-04-05T04:50:44;99672.44;;;0.02;100.00
68634;BME280;55625;47.072;22.192;2023-04-05T04:53:11;99671.28;;;0.06;100.00
68634;BME280;55625;47.072;22.192;2023-04-05T04:55:39;99668.47;;;0.03;100.00
68634;BME280;55625;47.072;22.192;2023-04-05T04:58:09;99675.69;;;0.07;100.00
68634;BME280;55625;47.072;22.192;2023-04-05T05:00:42;99680.88;;;0.09;100.00
68634;BME280;55625;47.072;22.192;2023-04-05T05:03:12;99678.47;;;0.07;100.00
68634;BME280;55625;47.072;22.192;2023-04-05T05:05:48;99680.50;;;0.10;100.00
68634;BME280;55625;47.072;22.192;2023-04-05T05:08:15;99681.31;;;0.14;100.00
68634;BME280;55625;47.072;22.192;2023-04-05T05:10:41;99682.47;;;0.10;100.00
68634;BME280;55625;47.072;22.192;2023-04-05T05:13:07;99680.09;;;0.12;100.00
68634;BME280;55625;47.072;22.192;2023-04-05T05:15:33;99682.13;;;0.15;100.00
68634;BME280;55625;47.072;22.192;2023-04-05T05:17:59;99677.41;;;0.22;99.95
68634;BME280;55625;47.072;22.192;2023-04-05T05:20:25;99678.19;;;0.19;100.00
68634;BME280;55625;47.072;22.192;2023-04-05T05:22:54;99668.28;;;0.29;98.15
68634;BME280;55625;47.072;22.192;2023-04-05T05:25:20;99662.75;;;0.33;98.15
68634;BME280;55625;47.072;22.192;2023-04-05T05:27:50;99669.88;;;0.30;97.98
68634;BME280;55625;47.072;22.192;2023-04-05T05:30:17;99677.91;;;0.32;97.83
68634;BME280;55625;47.072;22.192;2023-04-05T05:32:43;99678.25;;;0.26;97.27
68634;BME280;55625;47.072;22.192;2023-04-05T05:35:09;99681.41;;;0.25;96.85
68634;BME280;55625;47.072;22.192;2023-04-05T05:37:36;99688.63;;;0.29;96.50
68634;BME280;55625;47.072;22.192;2023-04-05T05:40:02;99690.22;;;0.30;96.21
68634;BME280;55625;47.072;22.192;2023-04-05T05:42:30;99688.31;;;0.38;95.28
68634;BME280;55625;47.072;22.192;2023-04-05T05:45:01;99700.69;;;0.37;95.27
68634;BME280;55625;47.072;22.192;2023-04-05T05:47:27;99689.19;;;0.46;93.92
68634;BME280;55625;47.072;22.192;2023-04-05T05:49:53;99691.13;;;0.42;95.45
68634;BME280;55625;47.072;22.192;2023-04-05T05:52:19;99686.78;;;0.44;94.17
68634;BME280;55625;47.072;22.192;2023-04-05T05:54:45;99690.81;;;0.50;94.95
68634;BME280;55625;47.072;22.192;2023-04-05T05:57:12;99696.00;;;0.52;94.66
68634;BME280;55625;47.072;22.192;2023-04-05T05:59:38;99689.56;;;0.44;94.62
68634;BME280;55625;47.072;22.192;2023-04-05T06:02:03;99690.34;;;0.41;93.33
68634;BME280;55625;47.072;22.192;2023-04-05T06:04:29;99697.63;;;0.56;93.02
68634;BME280;55625;47.072;22.192;2023-04-05T06:06:56;99696.00;;;0.52;92.54
68634;BME280;55625;47.072;22.192;2023-04-05T06:09:22;99686.81;;;0.51;92.86
68634;BME280;55625;47.072;22.192;2023-04-05T06:11:51;99691.63;;;0.54;91.70
68634;BME280;55625;47.072;22.192;2023-04-05T06:14:17;99702.78;;;0.54;91.24
68634;BME280;55625;47.072;22.192;2023-04-05T06:16:43;99696.03;;;0.59;91.96
68634;BME280;55625;47.072;22.192;2023-04-05T06:19:09;99694.53;;;0.69;91.74
68634;BME280;55625;47.072;22.192;2023-04-05T06:21:36;99697.00;;;0.77;91.63
68634;BME280;55625;47.072;22.192;2023-04-05T06:24:01;99697.44;;;0.86;89.07
68634;BME280;55625;47.072;22.192;2023-04-05T06:26:27;99701.81;;;0.84;88.22
68634;BME280;55625;47.072;22.192;2023-04-05T06:28:55;99705.75;;;0.76;90.93
68634;BME280;55625;47.072;22.192;2023-04-05T06:31:29;99699.00;;;0.80;88.28
68634;BME280;55625;47.072;22.192;2023-04-05T06:33:56;99700.63;;;0.85;88.09
68634;BME280;55625;47.072;22.192;2023-04-05T06:36:22;99705.91;;;0.93;90.64
68634;BME280;55625;47.072;22.192;2023-04-05T06:38:49;99703.50;;;0.92;89.99
68634;BME280;55625;47.072;22.192;2023-04-05T06:41:15;99709.53;;;1.01;90.93
68634;BME280;55625;47.072;22.192;2023-04-05T06:43:41;99701.56;;;1.07;89.52
68634;BME280;55625;47.072;22.192;2023-04-05T06:46:07;99707.19;;;1.14;87.91
68634;BME280;55625;47.072;22.192;2023-04-05T06:48:36;99718.47;;;1.24;88.33
68634;BME280;55625;47.072;22.192;2023-04-05T06:51:02;99712.50;;;1.33;89.24
68634;BME280;55625;47.072;22.192;2023-04-05T06:53:29;99713.75;;;1.43;88.56
68634;BME280;55625;47.072;22.192;2023-04-05T06:55:57;99720.13;;;1.43;88.23
68634;BME280;55625;47.072;22.192;2023-04-05T06:58:23;99713.28;;;1.30;86.49
68634;BME280;55625;47.072;22.192;2023-04-05T07:00:50;99716.56;;;1.46;89.05
68634;BME280;55625;47.072;22.192;2023-04-05T07:03:16;99718.56;;;1.53;88.57
68634;BME280;55625;47.072;22.192;2023-04-05T07:05:53;99722.22;;;1.61;89.17
68634;BME280;55625;47.072;22.192;2023-04-05T07:08:20;99717.47;;;1.75;87.66
68634;BME280;55625;47.072;22.192;2023-04-05T07:10:47;99725.88;;;1.82;88.60
68634;BME280;55625;47.072;22.192;2023-04-05T07:13:13;99718.75;;;1.99;88.62
68634;BME280;55625;47.072;22.192;2023-04-05T07:15:39;99721.59;;;2.17;87.29
68634;BME280;55625;47.072;22.192;2023-04-05T07:18:05;99706.81;;;2.34;89.22
68634;BME280;55625;47.072;22.192;2023-04-05T07:20:31;99717.16;;;2.05;84.13
68634;BME280;55625;47.072;22.192;2023-04-05T07:22:57;99711.97;;;2.11;85.31
68634;BME280;55625;47.072;22.192;2023-04-05T07:25:23;99712.81;;;2.33;84.22
68634;BME280;55625;47.072;22.192;2023-04-05T07:27:49;99716.41;;;2.40;82.68
68634;BME280;55625;47.072;22.192;2023-04-05T07:30:15;99715.66;;;2.54;83.06
68634;BME280;55625;47.072;22.192;2023-04-05T07:32:40;99704.03;;;2.59;81.68
68634;BME280;55625;47.072;22.192;2023-04-05T07:35:07;99705.22;;;2.62;82.53
68634;BME280;55625;47.072;22.192;2023-04-05T07:37:33;99704.84;;;2.49;81.97
68634;BME280;55625;47.072;22.192;2023-04-05T07:39:58;99697.25;;;2.53;81.38
68634;BME280;55625;47.072;22.192;2023-04-05T07:42:24;99697.25;;;2.46;80.60
68634;BME280;55625;47.072;22.192;2023-04-05T07:44:52;99702.44;;;2.51;80.62
68634;BME280;55625;47.072;22.192;2023-04-05T07:47:18;99704.03;;;2.66;80.94
68634;BME280;55625;47.072;22.192;2023-04-05T07:49:44;99703.22;;;2.84;79.18
68634;BME280;55625;47.072;22.192;2023-04-05T07:52:10;99698.81;;;2.75;79.02
68634;BME280;55625;47.072;22.192;2023-04-05T07:54:36;99706.44;;;2.78;78.68
68634;BME280;55625;47.072;22.192;2023-04-05T07:57:08;99702.41;;;2.87;80.94
68634;BME280;55625;47.072;22.192;2023-04-05T07:59:35;99701.63;;;2.79;81.36
68634;BME280;55625;47.072;22.192;2023-04-05T08:02:02;99705.63;;;2.82;76.92
68634;BME280;55625;47.072;22.192;2023-04-05T08:04:28;99710.03;;;2.83;78.74
68634;BME280;55625;47.072;22.192;2023-04-05T08:06:54;99698.44;;;2.80;78.89
68634;BME280;55625;47.072;22.192;2023-04-05T08:09:20;99707.22;;;3.07;77.00
68634;BME280;55625;47.072;22.192;2023-04-05T08:11:45;99716.38;;;3.19;78.13
68634;BME280;55625;47.072;22.192;2023-04-05T08:14:12;99703.91;;;3.34;76.99
68634;BME280;55625;47.072;22.192;2023-04-05T08:16:38;99708.63;;;3.62;79.09
68634;BME280;55625;47.072;22.192;2023-04-05T08:19:03;99717.00;;;3.76;77.51
68634;BME280;55625;47.072;22.192;2023-04-05T08:21:29;99715.03;;;3.69;75.67
68634;BME280;55625;47.072;22.192;2023-04-05T08:23:55;99727.75;;;3.88;75.11
68634;BME280;55625;47.072;22.192;2023-04-05T08:26:22;99721.69;;;4.04;73.24
68634;BME280;55625;47.072;22.192;2023-04-05T08:28:48;99711.19;;;4.12;74.27
68634;BME280;55625;47.072;22.192;2023-04-05T08:31:14;99719.91;;;4.31;76.05
68634;BME280;55625;47.072;22.192;2023-04-05T08:33:40;99721.38;;;4.50;72.03
68634;BME280;55625;47.072;22.192;2023-04-05T08:36:08;99709.50;;;4.25;72.08
68634;BME280;55625;47.072;22.192;2023-04-05T08:38:34;99721.09;;;4.34;75.15
68634;BME280;55625;47.072;22.192;2023-04-05T08:41:16;99723.41;;;4.46;75.14
68634;BME280;55625;47.072;22.192;2023-04-05T08:43:56;99723.22;;;4.71;72.99
68634;BME280;55625;47.072;22.192;2023-04-05T08:46:25;99738.91;;;4.68;70.91
68634;BME280;55625;47.072;22.192;2023-04-05T08:48:52;99737.69;;;4.70;71.17
68634;BME280;55625;47.072;22.192;2023-04-05T08:51:21;99726.00;;;4.75;73.92
68634;BME280;55625;47.072;22.192;2023-04-05T08:53:48;99731.25;;;4.73;71.01
68634;BME280;55625;47.072;22.192;2023-04-05T08:56:32;99727.31;;;4.63;71.36
68634;BME280;55625;47.072;22.192;2023-04-05T08:59:06;99738.59;;;4.56;73.02
68634;BME280;55625;47.072;22.192;2023-04-05T09:01:36;99741.91;;;4.44;71.59
68634;BME280;55625;47.072;22.192;2023-04-05T09:04:11;99734.78;;;4.25;72.15
68634;BME280;55625;47.072;22.192;2023-04-05T09:06:38;99742.94;;;4.67;72.44
68634;BME280;55625;47.072;22.192;2023-04-05T09:09:08;99734.44;;;4.75;68.03
68634;BME280;55625;47.072;22.192;2023-04-05T09:11:34;99741.72;;;4.68;70.29
68634;BME280;55625;47.072;22.192;2023-04-05T09:14:05;99731.03;;;4.97;70.90
68634;BME280;55625;47.072;22.192;2023-04-05T09:16:40;99736.09;;;5.13;70.64
68634;BME280;55625;47.072;22.192;2023-04-05T09:19:08;99730.09;;;5.49;68.39
68634;BME280;55625;47.072;22.192;2023-04-05T09:22:06;99741.34;;;5.11;67.36
68634;BME280;55625;47.072;22.192;2023-04-05T09:24:41;99739.44;;;5.42;68.26
68634;BME280;55625;47.072;22.192;2023-04-05T09:27:09;99732.06;;;5.55;67.90
68634;BME280;55625;47.072;22.192;2023-04-05T09:29:37;99733.00;;;5.42;67.84
68634;BME280;55625;47.072;22.192;2023-04-05T09:32:05;99730.78;;;5.60;68.94
68634;BME280;55625;47.072;22.192;2023-04-05T09:34:35;99732.22;;;6.09;66.20
68634;BME280;55625;47.072;22.192;2023-04-05T09:37:12;99734.56;;;6.14;65.98
68634;BME280;55625;47.072;22.192;2023-04-05T09:39:39;99734.75;;;6.00;66.89
68634;BME280;55625;47.072;22.192;2023-04-05T09:42:13;99736.16;;;6.15;68.17
68634;BME280;55625;47.072;22.192;2023-04-05T09:44:58;99731.88;;;6.34;66.23
68634;BME280;55625;47.072;22.192;2023-04-05T09:47:31;99727.72;;;6.42;64.10
68634;BME280;55625;47.072;22.192;2023-04-05T09:50:16;99735.03;;;7.13;63.84
68634;BME280;55625;47.072;22.192;2023-04-05T09:52:43;99750.25;;;7.20;62.78
68634;BME280;55625;47.072;22.192;2023-04-05T09:55:10;99732.94;;;6.44;62.21
68634;BME280;55625;47.072;22.192;2023-04-05T09:57:38;99736.91;;;6.19;65.35
68634;BME280;55625;47.072;22.192;2023-04-05T10:00:05;99735.53;;;6.31;65.35
68634;BME280;55625;47.072;22.192;2023-04-05T10:02:39;99726.66;;;6.60;66.00
68634;BME280;55625;47.072;22.192;2023-04-05T10:05:06;99736.75;;;6.57;64.53
68634;BME280;55625;47.072;22.192;2023-04-05T10:07:33;99737.34;;;6.95;65.66
68634;BME280;55625;47.072;22.192;2023-04-05T10:09:59;99737.28;;;6.99;62.31
68634;BME280;55625;47.072;22.192;2023-04-05T10:12:27;99737.41;;;6.92;64.37
68634;BME280;55625;47.072;22.192;2023-04-05T10:14:54;99738.09;;;6.99;61.00
68634;BME280;55625;47.072;22.192;2023-04-05T10:17:38;99734.09;;;6.97;62.91
68634;BME280;55625;47.072;22.192;2023-04-05T10:20:21;99735.50;;;6.85;64.38
68634;BME280;55625;47.072;22.192;2023-04-05T10:23:07;99724.63;;;7.10;63.13
68634;BME280;55625;47.072;22.192;2023-04-05T10:28:36;99730.16;;;6.67;63.56
68634;BME280;55625;47.072;22.192;2023-04-05T10:34:42;99728.00;;;6.51;61.93
68634;BME280;55625;47.072;22.192;2023-04-05T10:40:07;99727.53;;;6.80;64.87
68634;BME280;55625;47.072;22.192;2023-04-05T10:42:42;99727.94;;;7.05;62.05
68634;BME280;55625;47.072;22.192;2023-04-05T10:45:12;99734.28;;;6.86;63.01
68634;BME280;55625;47.072;22.192;2023-04-05T10:47:53;99742.22;;;7.18;61.50
68634;BME280;55625;47.072;22.192;2023-04-05T10:50:22;99742.03;;;7.05;60.75
68634;BME280;55625;47.072;22.192;2023-04-05T10:52:50;99746.03;;;7.08;61.35
68634;BME280;55625;47.072;22.192;2023-04-05T10:55:18;99746.69;;;6.65;62.69
68634;BME280;55625;47.072;22.192;2023-04-05T10:57:46;99734.81;;;7.04;62.69
68634;BME280;55625;47.072;22.192;2023-04-05T11:00:15;99739.06;;;7.36;58.09
68634;BME280;55625;47.072;22.192;2023-04-05T11:02:42;99735.22;;;7.69;62.93
68634;BME280;55625;47.072;22.192;2023-04-05T11:05:32;99732.13;;;7.40;61.60
68634;BME280;55625;47.072;22.192;2023-04-05T11:08:06;99734.19;;;7.16;62.97
68634;BME280;55625;47.072;22.192;2023-04-05T11:10:35;99752.19;;;7.23;59.96
68634;BME280;55625;47.072;22.192;2023-04-05T11:13:05;99745.44;;;6.93;60.33
68634;BME280;55625;47.072;22.192;2023-04-05T11:15:32;99739.56;;;6.84;60.07
68634;BME280;55625;47.072;22.192;2023-04-05T11:20:52;99744.22;;;7.18;60.18
68634;BME280;55625;47.072;22.192;2023-04-05T11:23:22;99743.25;;;7.04;61.98
68634;BME280;55625;47.072;22.192;2023-04-05T11:26:05;99738.00;;;7.06;60.64
68634;BME280;55625;47.072;22.192;2023-04-05T11:28:38;99743.44;;;7.17;63.02
68634;BME280;55625;47.072;22.192;2023-04-05T11:31:19;99740.38;;;7.51;61.77
68634;BME280;55625;47.072;22.192;2023-04-05T11:36:13;99738.75;;;7.73;56.38
68634;BME280;55625;47.072;22.192;2023-04-05T11:42:09;99731.41;;;7.56;56.41
68634;BME280;55625;47.072;22.192;2023-04-05T11:44:41;99735.25;;;7.46;56.00
68634;BME280;55625;47.072;22.192;2023-04-05T11:47:08;99737.44;;;7.15;57.84
68634;BME280;55625;47.072;22.192;2023-04-05T11:49:36;99739.38;;;6.95;58.54
68634;BME280;55625;47.072;22.192;2023-04-05T11:52:18;99738.16;;;7.19;60.40
68634;BME280;55625;47.072;22.192;2023-04-05T11:54:45;99733.34;;;7.39;61.22
68634;BME280;55625;47.072;22.192;2023-04-05T11:57:19;99739.31;;;7.22;59.02
68634;BME280;55625;47.072;22.192;2023-04-05T11:59:50;99743.66;;;7.50;58.79
68634;BME280;55625;47.072;22.192;2023-04-05T12:02:17;99732.22;;;7.57;54.62
68634;BME280;55625;47.072;22.192;2023-04-05T12:04:42;99726.38;;;7.67;58.15
68634;BME280;55625;47.072;22.192;2023-04-05T12:07:17;99738.88;;;7.23;60.70
68634;BME280;55625;47.072;22.192;2023-04-05T12:10:04;99735.19;;;7.26;58.90
68634;BME280;55625;47.072;22.192;2023-04-05T12:15:01;99737.94;;;7.10;60.41
68634;BME280;55625;47.072;22.192;2023-04-05T12:17:41;99734.34;;;7.29;62.49
68634;BME280;55625;47.072;22.192;2023-04-05T12:20:10;99720.13;;;7.56;59.66
68634;BME280;55625;47.072;22.192;2023-04-05T12:22:38;99735.41;;;7.15;59.12
68634;BME280;55625;47.072;22.192;2023-04-05T12:25:05;99723.19;;;7.22;59.71
68634;BME280;55625;47.072;22.192;2023-04-05T12:27:32;99735.13;;;7.30;59.59
68634;BME280;55625;47.072;22.192;2023-04-05T12:30:18;99733.34;;;7.39;60.03
68634;BME280;55625;47.072;22.192;2023-04-05T12:32:53;99726.41;;;7.44;57.59
68634;BME280;55625;47.072;22.192;2023-04-05T12:35:28;99726.22;;;7.74;59.48
68634;BME280;55625;47.072;22.192;2023-04-05T12:38:04;99732.75;;;7.71;55.96
68634;BME280;55625;47.072;22.192;2023-04-05T12:40:33;99727.81;;;7.12;57.59
68634;BME280;55625;47.072;22.192;2023-04-05T12:43:03;99732.56;;;7.15;57.74
68634;BME280;55625;47.072;22.192;2023-04-05T12:45:30;99722.94;;;7.36;54.55
68634;BME280;55625;47.072;22.192;2023-04-05T12:48:08;99724.69;;;7.50;60.03
68634;BME280;55625;47.072;22.192;2023-04-05T12:50:35;99722.66;;;7.51;55.16
68634;BME280;55625;47.072;22.192;2023-04-05T12:53:06;99724.69;;;7.50;55.64
68634;BME280;55625;47.072;22.192;2023-04-05T12:55:41;99715.19;;;7.60;58.71
68634;BME280;55625;47.072;22.192;2023-04-05T12:58:08;99725.69;;;7.60;57.44
68634;BME280;55625;47.072;22.192;2023-04-05T13:00:34;99716.72;;;7.85;57.23
68634;BME280;55625;47.072;22.192;2023-04-05T13:03:00;99716.56;;;8.12;57.09
68634;BME280;55625;47.072;22.192;2023-04-05T13:05:29;99721.03;;;8.29;55.71
68634;BME280;55625;47.072;22.192;2023-04-05T13:07:55;99710.81;;;8.35;54.53
68634;BME280;55625;47.072;22.192;2023-04-05T13:10:23;99706.09;;;8.28;56.19
68634;BME280;55625;47.072;22.192;2023-04-05T13:12:50;99716.22;;;8.46;54.43
68634;BME280;55625;47.072;22.192;2023-04-05T13:15:17;99713.31;;;7.93;54.65
68634;BME280;55625;47.072;22.192;2023-04-05T13:17:44;99705.94;;;7.99;56.54
68634;BME280;55625;47.072;22.192;2023-04-05T13:20:11;99704.78;;;7.97;55.74
68634;BME280;55625;47.072;22.192;2023-04-05T13:22:38;99704.69;;;7.61;54.24
68634;BME280;55625;47.072;22.192;2023-04-05T13:25:04;99708.25;;;7.85;54.33
68634;BME280;55625;47.072;22.192;2023-04-05T13:27:30;99695.53;;;7.33;56.22
68634;BME280;55625;47.072;22.192;2023-04-05T13:29:56;99695.66;;;7.50;56.47
68634;BME280;55625;47.072;22.192;2023-04-05T13:32:22;99699.34;;;7.66;55.59
68634;BME280;55625;47.072;22.192;2023-04-05T13:34:48;99697.97;;;7.55;56.07
68634;BME280;55625;47.072;22.192;2023-04-05T13:37:14;99693.63;;;7.70;56.48